createdAt,value
2023-01-02T00:01:32.906Z,100.00
2023-01-02T00:04:05.463Z,100.00
2023-01-02T00:06:39.226Z,100.00
2023-01-02T00:09:11.692Z,100.00
2023-01-02T00:11:44.036Z,100.00
2023-01-02T00:14:16.365Z,100.00
2023-01-02T00:16:48.779Z,100.00
2023-01-02T00:19:21.272Z,100.00
2023-01-02T00:21:54.678Z,100.00
2023-01-02T00:24:27.029Z,100.00
2023-01-02T00:26:59.450Z,100.00
2023-01-02T00:29:31.837Z,100.00
2023-01-02T00:32:04.671Z,100.00
2023-01-02T00:34:37.025Z,100.00
2023-01-02T00:37:10.103Z,100.00
2023-01-02T00:39:42.435Z,100.00
2023-01-02T00:42:14.828Z,100.00
2023-01-02T00:44:47.109Z,100.00
2023-01-02T00:47:19.492Z,100.00
2023-01-02T00:49:51.761Z,100.00
2023-01-02T00:52:24.901Z,100.00
2023-01-02T00:54:57.232Z,100.00
2023-01-02T00:57:29.695Z,100.00
2023-01-02T01:00:02.304Z,100.00
2023-01-02T01:02:36.112Z,100.00
2023-01-02T01:05:08.954Z,100.00
2023-01-02T01:07:42.043Z,100.00
2023-01-02T01:10:14.477Z,100.00
2023-01-02T01:12:46.910Z,100.00
2023-01-02T01:15:19.354Z,100.00
2023-01-02T01:17:51.790Z,100.00
2023-01-02T01:20:24.337Z,100.00
2023-01-02T01:22:57.373Z,100.00
2023-01-02T01:25:29.682Z,100.00
2023-01-02T01:28:02.121Z,100.00
2023-01-02T01:30:34.436Z,100.00
2023-01-02T01:33:06.833Z,100.00
2023-01-02T01:35:39.208Z,100.00
2023-01-02T01:38:12.310Z,100.00
2023-01-02T01:40:44.629Z,100.00
2023-01-02T01:43:16.949Z,100.00
2023-01-02T01:45:49.442Z,100.00
2023-01-02T01:48:21.856Z,100.00
2023-01-02T01:50:54.287Z,100.00
2023-01-02T01:53:27.339Z,100.00
2023-01-02T01:56:03.956Z,100.00
2023-01-02T01:58:42.342Z,100.00
2023-01-02T02:01:17.115Z,100.00
2023-01-02T02:03:50.828Z,100.00
2023-01-02T02:06:23.266Z,100.00
2023-01-02T02:09:01.469Z,100.00
2023-01-02T02:11:35.361Z,100.00
2023-01-02T02:14:07.789Z,100.00
2023-01-02T02:16:49.440Z,100.00
2023-01-02T02:19:58.873Z,100.00
2023-01-02T02:23:12.929Z,100.00
2023-01-02T02:26:23.287Z,100.00
2023-01-02T02:29:28.581Z,100.00
2023-01-02T02:32:10.463Z,100.00
2023-01-02T02:34:48.657Z,100.00
2023-01-02T02:37:28.656Z,100.00
2023-01-02T02:40:13.082Z,100.00
2023-01-02T02:42:59.517Z,100.00
2023-01-02T02:45:45.376Z,100.00
2023-01-02T02:48:26.152Z,100.00
2023-01-02T02:51:05.281Z,100.00
2023-01-02T02:53:42.743Z,100.00
2023-01-02T02:56:17.605Z,100.00
2023-01-02T02:58:50.975Z,100.00
2023-01-02T03:01:30.664Z,100.00
2023-01-02T03:04:15.662Z,100.00
2023-01-02T03:07:04.270Z,100.00
2023-01-02T03:09:44.651Z,100.00
2023-01-02T03:12:31.858Z,100.00
2023-01-02T03:15:14.285Z,100.00
2023-01-02T03:18:02.414Z,100.00
2023-01-02T03:20:38.883Z,100.00
2023-01-02T03:23:18.297Z,100.00
2023-01-02T03:25:51.757Z,100.00
2023-01-02T03:28:26.776Z,100.00
2023-01-02T03:31:02.466Z,100.00
2023-01-02T03:33:42.544Z,100.00
2023-01-02T03:36:19.718Z,100.00
2023-01-02T03:38:58.996Z,100.00
2023-01-02T03:41:35.715Z,100.00
2023-01-02T03:44:10.441Z,100.00
2023-01-02T03:46:48.224Z,100.00
2023-01-02T03:49:24.587Z,100.00
2023-01-02T03:51:57.666Z,100.00
2023-01-02T03:54:30.889Z,100.00
2023-01-02T03:57:14.071Z,100.00
2023-01-02T03:59:55.017Z,100.00
2023-01-02T04:02:34.135Z,100.00
2023-01-02T04:05:14.524Z,100.00
2023-01-02T04:07:57.306Z,100.00
2023-01-02T04:10:30.737Z,100.00
2023-01-02T04:13:09.646Z,100.00
2023-01-02T04:15:45.522Z,100.00
2023-01-02T04:18:23.249Z,100.00
2023-01-02T04:21:01.621Z,100.00
2023-01-02T04:23:40.155Z,100.00
2023-01-02T04:26:18.349Z,100.00
2023-01-02T04:28:51.309Z,100.00
2023-01-02T04:31:32.137Z,100.00
2023-01-02T04:34:09.032Z,100.00
2023-01-02T04:36:41.750Z,100.00
2023-01-02T04:39:14.749Z,100.00
2023-01-02T04:41:47.207Z,100.00
2023-01-02T04:44:19.534Z,100.00
2023-01-02T04:46:51.923Z,100.00
2023-01-02T04:49:26.039Z,100.00
2023-01-02T04:51:58.419Z,100.00
2023-01-02T04:54:31.380Z,100.00
2023-01-02T04:57:04.042Z,100.00
2023-01-02T04:59:36.344Z,100.00
2023-01-02T05:02:08.931Z,100.00
2023-01-02T05:04:41.443Z,100.00
2023-01-02T05:07:13.807Z,100.00
2023-01-02T05:09:46.792Z,100.00
2023-01-02T05:12:19.241Z,100.00
2023-01-02T05:14:51.619Z,100.00
2023-01-02T05:17:23.999Z,100.00
2023-01-02T05:19:56.333Z,100.00
2023-01-02T05:22:46.638Z,100.00
2023-01-02T05:25:19.720Z,100.00
2023-01-02T05:27:53.637Z,100.00
2023-01-02T05:30:26.047Z,100.00
2023-01-02T05:32:58.769Z,100.00
2023-01-02T05:35:33.214Z,100.00
2023-01-02T05:38:05.930Z,100.00
2023-01-02T05:40:38.953Z,100.00
2023-01-02T05:43:11.334Z,100.00
2023-01-02T05:45:43.726Z,100.00
2023-01-02T05:48:16.107Z,100.00
2023-01-02T05:50:48.380Z,100.00
2023-01-02T05:53:20.771Z,100.00
2023-01-02T05:55:53.740Z,100.00
2023-01-02T05:58:26.093Z,100.00
2023-01-02T06:01:06.446Z,100.00
2023-01-02T06:03:39.068Z,100.00
2023-01-02T06:06:11.470Z,100.00
2023-01-02T06:08:44.068Z,100.00
2023-01-02T06:11:17.336Z,100.00
2023-01-02T06:13:49.624Z,100.00
2023-01-02T06:16:23.486Z,100.00
2023-01-02T06:18:56.003Z,100.00
2023-01-02T06:21:28.341Z,100.00
2023-01-02T06:24:00.768Z,100.00
2023-01-02T06:26:35.352Z,100.00
2023-01-02T06:29:08.919Z,100.00
2023-01-02T06:31:43.539Z,100.00
2023-01-02T06:34:20.136Z,100.00
2023-01-02T06:36:52.484Z,100.00
2023-01-02T06:39:24.875Z,100.00
2023-01-02T06:41:57.919Z,100.00
2023-01-02T06:44:30.330Z,100.00
2023-01-02T06:47:02.664Z,100.00
2023-01-02T06:49:35.063Z,100.00
2023-01-02T06:52:07.363Z,100.00
2023-01-02T06:54:39.801Z,100.00
2023-01-02T06:57:12.847Z,100.00
2023-01-02T06:59:45.307Z,100.00
2023-01-02T07:02:17.678Z,100.00
2023-01-02T07:04:50.192Z,100.00
2023-01-02T07:07:22.504Z,100.00
2023-01-02T07:09:56.490Z,100.00
2023-01-02T07:12:29.461Z,100.00
2023-01-02T07:15:02.216Z,100.00
2023-01-02T07:17:34.580Z,100.00
2023-01-02T07:20:07.809Z,100.00
2023-01-02T07:22:40.159Z,100.00
2023-01-02T07:25:12.533Z,100.00
2023-01-02T07:27:45.815Z,100.00
2023-01-02T07:30:18.270Z,100.00
2023-01-02T07:32:53.080Z,100.00
2023-01-02T07:35:25.481Z,100.00
2023-01-02T07:37:57.822Z,100.00
2023-01-02T07:40:32.254Z,100.00
2023-01-02T07:43:05.597Z,100.00
2023-01-02T07:45:38.039Z,100.00
2023-01-02T07:48:10.483Z,100.00
2023-01-02T07:50:42.859Z,100.00
2023-01-02T07:53:15.283Z,100.00
2023-01-02T07:55:53.162Z,100.00
2023-01-02T07:58:27.474Z,100.00
2023-01-02T08:01:06.051Z,100.00
2023-01-02T08:03:38.883Z,100.00
2023-01-02T08:06:13.121Z,100.00
2023-01-02T08:08:45.468Z,100.00
2023-01-02T08:11:20.330Z,100.00
2023-01-02T08:13:53.312Z,100.00
2023-01-02T08:16:25.827Z,100.00
2023-01-02T08:18:58.145Z,100.00
2023-01-02T08:21:30.553Z,100.00
2023-01-02T08:24:03.036Z,100.00
2023-01-02T08:26:35.403Z,100.00
2023-01-02T08:29:08.741Z,100.00
2023-01-02T08:31:43.849Z,100.00
2023-01-02T08:34:16.936Z,100.00
2023-01-02T08:36:49.301Z,100.00
2023-01-02T08:39:21.624Z,100.00
2023-01-02T08:41:53.993Z,100.00
2023-01-02T08:44:27.044Z,100.00
2023-01-02T08:46:59.427Z,100.00
2023-01-02T08:49:31.828Z,100.00
2023-01-02T08:52:04.511Z,100.00
2023-01-02T08:54:36.841Z,100.00
2023-01-02T08:57:09.248Z,100.00
2023-01-02T08:59:42.237Z,100.00
2023-01-02T09:02:15.169Z,100.00
2023-01-02T09:04:47.659Z,100.00
2023-01-02T09:07:20.047Z,100.00
2023-01-02T09:09:52.421Z,98.45
2023-01-02T09:12:24.859Z,96.48
2023-01-02T09:14:57.844Z,94.01
2023-01-02T09:17:30.589Z,93.79
2023-01-02T09:20:03.453Z,93.66
2023-01-02T09:22:36.421Z,92.39
2023-01-02T09:25:09.269Z,89.14
2023-01-02T09:27:41.694Z,88.59
2023-01-02T09:30:15.227Z,89.84
2023-01-02T09:32:48.410Z,87.19
2023-01-02T09:35:20.728Z,87.58
2023-01-02T09:37:53.096Z,85.58
2023-01-02T09:40:26.625Z,81.95
2023-01-02T09:42:59.844Z,79.07
2023-01-02T09:45:33.593Z,79.50
2023-01-02T09:48:06.245Z,78.18
2023-01-02T09:50:38.925Z,77.24
2023-01-02T09:53:13.519Z,77.43
2023-01-02T09:55:54.480Z,77.03
2023-01-02T09:58:37.073Z,75.06
2023-01-02T10:01:18.485Z,74.34
2023-01-02T10:03:59.763Z,73.01
2023-01-02T10:06:39.594Z,72.57
2023-01-02T10:09:21.714Z,71.57
2023-01-02T10:12:03.754Z,70.86
2023-01-02T10:14:50.702Z,71.48
2023-01-02T10:17:25.665Z,72.04
2023-01-02T10:20:01.639Z,69.50
2023-01-02T10:22:41.486Z,68.74
2023-01-02T10:25:21.584Z,69.73
2023-01-02T10:28:02.043Z,69.44
2023-01-02T10:30:41.304Z,69.73
2023-01-02T10:33:20.497Z,69.15
2023-01-02T10:35:56.552Z,69.73
2023-01-02T10:38:35.107Z,68.35
2023-01-02T10:41:08.844Z,67.09
2023-01-02T10:43:41.181Z,66.57
2023-01-02T10:46:13.598Z,65.80
2023-01-02T10:48:52.073Z,65.93
2023-01-02T10:51:26.687Z,66.34
2023-01-02T10:54:00.862Z,63.34
2023-01-02T10:56:35.963Z,63.74
2023-01-02T10:59:20.440Z,62.51
2023-01-02T11:01:55.512Z,62.68
2023-01-02T11:04:30.552Z,62.58
2023-01-02T11:07:03.767Z,62.67
2023-01-02T11:09:36.149Z,61.97
2023-01-02T11:12:11.003Z,62.51
2023-01-02T11:14:43.287Z,63.32
2023-01-02T11:17:17.401Z,60.94
2023-01-02T11:19:52.785Z,60.03
2023-01-02T11:22:35.595Z,61.44
2023-01-02T11:25:20.378Z,60.15
2023-01-02T11:27:57.408Z,59.43
2023-01-02T11:30:35.664Z,59.46
2023-01-02T11:33:18.805Z,58.63
2023-01-02T11:35:54.303Z,57.15
2023-01-02T11:38:39.504Z,57.63
2023-01-02T11:41:45.485Z,57.13
2023-01-02T11:44:24.496Z,56.64
2023-01-02T11:46:58.525Z,55.91
2023-01-02T11:49:37.721Z,56.23
2023-01-02T11:52:15.848Z,55.88
2023-01-02T11:55:02.958Z,55.35
2023-01-02T11:57:42.408Z,55.15
2023-01-02T12:00:18.501Z,54.91
2023-01-02T12:02:52.260Z,54.96
2023-01-02T12:05:35.598Z,54.33
2023-01-02T12:08:18.048Z,53.30
2023-01-02T12:11:04.704Z,52.98
2023-01-02T12:13:52.760Z,54.44
2023-01-02T12:16:34.641Z,52.45
2023-01-02T12:19:23.975Z,51.75
2023-01-02T12:22:08.079Z,51.95
2023-01-02T12:24:53.832Z,50.85
2023-01-02T12:27:34.730Z,51.07
2023-01-02T12:30:13.346Z,51.98
2023-01-02T12:33:06.853Z,51.34
2023-01-02T12:36:24.207Z,51.84
2023-01-02T12:39:13.133Z,50.78
2023-01-02T12:42:01.912Z,50.15
2023-01-02T12:44:56.155Z,51.28
2023-01-02T12:47:41.935Z,50.85
2023-01-02T12:50:30.625Z,50.73
2023-01-02T12:53:19.376Z,50.79
2023-01-02T12:56:04.779Z,50.14
2023-01-02T12:58:49.236Z,49.96
2023-01-02T13:01:28.283Z,49.89
2023-01-02T13:04:04.711Z,49.79
2023-01-02T13:06:47.716Z,49.62
2023-01-02T13:09:26.837Z,50.11
2023-01-02T13:12:04.495Z,50.09
2023-01-02T13:14:41.360Z,49.99
2023-01-02T13:17:33.800Z,49.83
2023-01-02T13:20:14.378Z,49.93
2023-01-02T13:22:56.010Z,50.06
2023-01-02T13:25:30.846Z,50.39
2023-01-02T13:28:05.264Z,50.20
2023-01-02T13:30:43.907Z,50.18
2023-01-02T13:33:27.771Z,50.47
2023-01-02T13:36:02.673Z,50.29
2023-01-02T13:38:36.235Z,50.30
2023-01-02T13:41:14.614Z,50.71
2023-01-02T13:43:53.262Z,50.78
2023-01-02T13:47:02.182Z,51.32
2023-01-02T13:49:22.317Z,52.12
2023-01-02T13:51:59.432Z,52.38
2023-01-02T13:54:36.428Z,52.25
2023-01-02T13:57:17.811Z,52.87
2023-01-02T13:59:56.927Z,52.45
2023-01-02T14:02:30.200Z,52.51
2023-01-02T14:05:41.004Z,52.84
2023-01-02T14:08:23.966Z,53.64
2023-01-02T14:10:59.706Z,53.96
2023-01-02T14:13:36.001Z,53.88
2023-01-02T14:16:35.314Z,54.14
2023-01-02T14:19:21.743Z,54.34
2023-01-02T14:22:05.456Z,54.88
2023-01-02T14:24:41.028Z,55.15
2023-01-02T14:27:23.690Z,56.15
2023-01-02T14:29:59.048Z,56.01
2023-01-02T14:32:37.741Z,55.81
2023-01-02T14:35:28.387Z,56.55
2023-01-02T14:38:11.733Z,56.28
2023-01-02T14:40:45.707Z,57.12
2023-01-02T14:43:30.639Z,57.20
2023-01-02T14:46:10.026Z,57.12
2023-01-02T14:48:51.545Z,57.93
2023-01-02T14:51:31.733Z,58.91
2023-01-02T14:54:13.222Z,59.36
2023-01-02T14:56:47.964Z,59.43
2023-01-02T14:59:26.856Z,60.44
2023-01-02T15:02:04.538Z,61.44
2023-01-02T15:04:45.105Z,61.96
2023-01-02T15:07:27.171Z,62.87
2023-01-02T15:10:03.390Z,63.84
2023-01-02T15:13:03.374Z,64.42
2023-01-02T15:15:40.254Z,65.08
2023-01-02T15:18:20.111Z,65.67
2023-01-02T15:20:54.395Z,65.70
2023-01-02T15:23:27.513Z,65.82
2023-01-02T15:26:31.083Z,65.63
2023-01-02T15:28:57.865Z,65.48
2023-01-02T15:31:30.713Z,65.98
2023-01-02T15:34:03.053Z,66.58
2023-01-02T15:36:38.082Z,66.96
2023-01-02T15:39:18.001Z,67.79
2023-01-02T15:41:54.636Z,68.96
2023-01-02T15:44:47.752Z,69.22
2023-01-02T15:47:27.330Z,69.38
2023-01-02T15:50:04.912Z,69.44
2023-01-02T15:52:39.229Z,69.67
2023-01-02T15:55:17.289Z,69.88
2023-01-02T15:57:52.628Z,69.33
2023-01-02T16:00:34.777Z,70.39
2023-01-02T16:03:08.811Z,70.10
2023-01-02T16:05:48.877Z,70.52
2023-01-02T16:08:24.216Z,70.90
2023-01-02T16:11:00.841Z,71.84
2023-01-02T16:13:59.125Z,71.43
2023-01-02T16:16:49.395Z,72.49
2023-01-02T16:19:26.876Z,73.12
2023-01-02T16:22:07.889Z,73.93
2023-01-02T16:24:44.642Z,75.18
2023-01-02T16:27:25.111Z,74.75
2023-01-02T16:29:58.015Z,75.99
2023-01-02T16:32:32.218Z,75.88
2023-01-02T16:35:19.486Z,75.94
2023-01-02T16:37:57.275Z,76.57
2023-01-02T16:41:00.350Z,76.73
2023-01-02T16:43:42.817Z,75.88
2023-01-02T16:46:15.925Z,76.68
2023-01-02T16:48:48.352Z,77.82
2023-01-02T16:51:20.834Z,77.65
2023-01-02T16:53:53.170Z,78.15
2023-01-02T16:56:25.573Z,78.58
2023-01-02T16:58:59.497Z,78.42
2023-01-02T17:01:32.004Z,78.68
2023-01-02T17:04:04.607Z,78.64
2023-01-02T17:06:36.991Z,79.41
2023-01-02T17:09:09.311Z,79.61
2023-01-02T17:11:59.427Z,79.38
2023-01-02T17:14:33.353Z,80.53
2023-01-02T17:17:05.812Z,81.15
2023-01-02T17:19:38.208Z,81.27
2023-01-02T17:22:10.643Z,81.61
2023-01-02T17:24:42.950Z,81.76
2023-01-02T17:27:15.517Z,81.95
2023-01-02T17:29:48.529Z,81.88
2023-01-02T17:32:21.020Z,82.46
2023-01-02T17:34:53.351Z,81.69
2023-01-02T17:37:25.784Z,81.90
2023-01-02T17:39:58.812Z,82.48
2023-01-02T17:42:31.391Z,83.17
2023-01-02T17:45:05.469Z,83.60
2023-01-02T17:50:31.782Z,84.64
2023-01-02T17:53:04.164Z,84.58
2023-01-02T17:55:36.522Z,84.85
2023-01-02T17:58:08.965Z,85.08
2023-01-02T18:00:43.563Z,84.74
2023-01-02T18:03:16.038Z,84.61
2023-01-02T18:05:50.583Z,84.70
2023-01-02T18:08:25.687Z,84.24
2023-01-02T18:10:57.999Z,85.13
2023-01-02T18:13:32.875Z,86.21
2023-01-02T18:16:13.679Z,87.09
2023-01-02T18:18:46.382Z,85.82
2023-01-02T18:21:21.292Z,85.78
2023-01-02T18:23:57.145Z,86.15
2023-01-02T18:26:30.645Z,86.42
2023-01-02T18:29:10.071Z,86.73
2023-01-02T18:31:46.413Z,86.54
2023-01-02T18:34:47.120Z,84.77
2023-01-02T18:37:19.364Z,86.03
2023-01-02T18:39:51.933Z,86.82
2023-01-02T18:42:26.969Z,87.54
2023-01-02T18:45:00.073Z,87.46
2023-01-02T18:47:36.653Z,86.92
2023-01-02T18:50:30.966Z,87.47
2023-01-02T18:53:15.517Z,88.00
2023-01-02T18:55:50.128Z,89.29
2023-01-02T18:58:36.000Z,89.81
2023-01-02T19:01:22.649Z,90.33
2023-01-02T19:04:22.092Z,90.83
2023-01-02T19:07:17.880Z,91.60
2023-01-02T19:09:50.282Z,91.98
2023-01-02T19:12:43.596Z,91.90
2023-01-02T19:15:42.150Z,89.72
2023-01-02T19:18:23.689Z,90.45
2023-01-02T19:21:03.335Z,90.92
2023-01-02T19:23:42.947Z,91.16
2023-01-02T19:26:23.499Z,90.90
2023-01-02T19:29:00.107Z,92.16
2023-01-02T19:31:41.465Z,93.09
2023-01-02T19:34:27.131Z,93.38
2023-01-02T19:37:23.889Z,94.76
2023-01-02T19:39:58.390Z,94.92
2023-01-02T19:42:31.614Z,95.20
2023-01-02T19:45:06.844Z,95.42
2023-01-02T19:47:39.616Z,95.42
2023-01-02T19:50:14.310Z,94.85
2023-01-02T19:52:47.741Z,95.28
2023-01-02T19:55:20.161Z,95.08
2023-01-02T19:57:52.560Z,93.49
2023-01-02T20:00:24.880Z,94.16
2023-01-02T20:02:57.364Z,94.18
2023-01-02T20:05:30.185Z,94.57
2023-01-02T20:08:03.329Z,94.51
2023-01-02T20:10:35.934Z,94.61
2023-01-02T20:13:08.344Z,94.51
2023-01-02T20:15:40.712Z,94.86
2023-01-02T20:18:17.216Z,94.82
2023-01-02T20:20:49.589Z,95.23
2023-01-02T20:23:22.659Z,95.25
2023-01-02T20:25:55.012Z,95.38
2023-01-02T20:28:27.392Z,96.04
2023-01-02T20:30:59.857Z,96.02
2023-01-02T20:33:32.738Z,96.36
2023-01-02T20:36:11.352Z,96.75
2023-01-02T20:38:46.396Z,96.46
2023-01-02T20:41:18.874Z,96.53
2023-01-02T20:43:51.243Z,96.21
2023-01-02T20:46:23.696Z,95.67
2023-01-02T20:48:56.152Z,96.69
2023-01-02T20:51:29.529Z,96.04
2023-01-02T20:54:03.690Z,96.42
2023-01-02T20:56:36.060Z,96.72
2023-01-02T20:59:08.456Z,97.43
2023-01-02T21:01:41.794Z,97.36
2023-01-02T21:04:18.652Z,97.94
2023-01-02T21:06:53.116Z,98.91
2023-01-02T21:09:26.216Z,99.05
2023-01-02T21:11:58.581Z,98.79
2023-01-02T21:14:37.115Z,99.61
2023-01-02T21:17:09.793Z,99.28
2023-01-02T21:19:42.160Z,100.00
2023-01-02T21:22:14.475Z,100.00
2023-01-02T21:24:47.561Z,100.00
2023-01-02T21:27:19.946Z,100.00
2023-01-02T21:29:52.335Z,100.00
2023-01-02T21:32:24.683Z,100.00
2023-01-02T21:34:57.057Z,100.00
2023-01-02T21:37:29.418Z,100.00
2023-01-02T21:40:04.998Z,100.00
2023-01-02T21:42:44.497Z,100.00
2023-01-02T21:45:17.552Z,100.00
2023-01-02T21:47:50.143Z,100.00
2023-01-02T21:50:23.175Z,100.00
2023-01-02T21:52:55.513Z,100.00
2023-01-02T21:55:28.522Z,100.00
2023-01-02T21:58:16.329Z,100.00
2023-01-02T22:00:50.924Z,100.00
2023-01-02T22:03:23.403Z,100.00
2023-01-02T22:05:55.899Z,100.00
2023-01-02T22:08:28.188Z,100.00
2023-01-02T22:11:16.124Z,100.00
2023-01-02T22:13:48.466Z,100.00
2023-01-02T22:16:20.913Z,100.00
2023-01-02T22:18:53.253Z,100.00
2023-01-02T22:21:25.665Z,100.00
2023-01-02T22:23:58.162Z,100.00
2023-01-02T22:26:31.748Z,100.00
2023-01-02T22:29:04.966Z,100.00
2023-01-02T22:31:37.812Z,100.00
2023-01-02T22:34:10.668Z,100.00
2023-01-02T22:36:43.098Z,100.00
2023-01-02T22:39:27.978Z,100.00
2023-01-02T22:42:49.325Z,100.00
2023-01-02T22:45:18.734Z,100.00
2023-01-02T22:47:51.592Z,100.00
2023-01-02T22:50:26.664Z,100.00
2023-01-02T22:52:59.967Z,100.00
2023-01-02T22:55:32.793Z,100.00
2023-01-02T22:58:06.187Z,100.00
2023-01-02T23:00:38.960Z,100.00
2023-01-02T23:03:12.993Z,100.00
2023-01-02T23:05:45.360Z,100.00
2023-01-02T23:08:18.701Z,100.00
2023-01-02T23:10:51.065Z,100.00
2023-01-02T23:13:24.328Z,100.00
2023-01-02T23:16:14.996Z,100.00
2023-01-02T23:19:05.893Z,100.00
2023-01-02T23:21:39.545Z,100.00
2023-01-02T23:24:13.499Z,100.00
2023-01-02T23:26:49.823Z,100.00
2023-01-02T23:29:24.956Z,100.00
2023-01-02T23:31:57.397Z,100.00
2023-01-02T23:34:30.156Z,100.00
2023-01-02T23:37:03.018Z,100.00
2023-01-02T23:39:35.379Z,100.00
2023-01-02T23:42:07.700Z,100.00
2023-01-02T23:44:41.306Z,100.00
2023-01-02T23:47:18.885Z,100.00
2023-01-02T23:49:51.876Z,100.00
2023-01-02T23:52:24.181Z,100.00
2023-01-02T23:54:56.574Z,100.00
2023-01-02T23:57:28.879Z,100.00
